Upper Jay, New York
Current Conditions -  °F | °C
As of 6:51 AM on Friday 31 Oct 2014 (Local Time) from KSLK Reporting Station
Haze Haze  
Wind Chill: 28°   Ceiling: 100
Heat Index: 28°   Visibility: 1mi
Dew Point: 26°   Wind: 0mph
Humidity: 92%   Direction: NA
Pressure: 29.97"   Gusts: NA
Location:  44.34°N, 73.78°W
Report Text: KSLK 311051Z AUTO 00000KT 1SM BR VV001 M02/M03 A2997 RMK AO2 VIS 3/4V2 SLP167 I1000 T10221033
Loading
Personal Weather Stations






























Interactive Weather Map New forecast layout! Learn more

10-Day Weather Forecast

Advertisements
Track Severe Weather on mobile